createdAt,value
2022-09-22T00:01:43.770Z,8.38
2022-09-22T00:04:12.595Z,6.93
2022-09-22T00:06:50.863Z,3.75
2022-09-22T00:09:22.780Z,3.65
2022-09-22T00:11:55.083Z,4.17
2022-09-22T00:14:25.259Z,5.85
2022-09-22T00:22:48.026Z,4.80
2022-09-22T00:25:43.954Z,3.28
2022-09-22T00:28:13.817Z,2.92
2022-09-22T00:30:43.414Z,3.67
2022-09-22T00:33:10.606Z,3.40
2022-09-22T00:35:40.399Z,4.85
2022-09-22T00:38:08.883Z,3.55
2022-09-22T00:40:37.052Z,2.17
2022-09-22T00:43:21.610Z,2.67
2022-09-22T00:46:15.938Z,3.78
2022-09-22T00:48:58.820Z,5.97
2022-09-22T00:51:30.316Z,3.53
2022-09-22T00:54:00.343Z,2.92
2022-09-22T00:56:31.954Z,5.13
2022-09-22T00:59:04.076Z,2.03
2022-09-22T01:04:45.378Z,6.10
2022-09-22T01:07:18.678Z,5.70
2022-09-22T01:09:45.299Z,3.28
2022-09-22T01:12:14.914Z,3.92
2022-09-22T01:15:08.467Z,3.40
2022-09-22T01:18:09.779Z,2.83
2022-09-22T01:21:10.233Z,3.65
2022-09-22T01:23:59.461Z,3.13
2022-09-22T01:26:57.662Z,2.45
2022-09-22T01:29:27.160Z,4.68
2022-09-22T01:35:13.697Z,4.15
2022-09-22T01:38:10.296Z,4.30
2022-09-22T01:41:02.102Z,9.48
2022-09-22T01:43:54.216Z,6.78
2022-09-22T01:46:32.439Z,5.45
2022-09-22T01:49:07.385Z,3.83
2022-09-22T01:51:52.369Z,8.18
2022-09-22T01:54:38.527Z,5.60
2022-09-22T01:57:27.672Z,3.58
2022-09-22T02:00:03.483Z,6.43
2022-09-22T02:03:01.556Z,2.90
2022-09-22T02:05:37.822Z,4.75
2022-09-22T02:08:10.908Z,4.78
2022-09-22T02:10:41.873Z,4.78
2022-09-22T02:13:08.525Z,3.67
2022-09-22T02:15:55.156Z,4.75
2022-09-22T02:18:46.393Z,4.80
2022-09-22T02:21:14.602Z,4.68
2022-09-22T02:23:47.165Z,3.75
2022-09-22T02:26:23.189Z,5.43
2022-09-22T02:29:01.333Z,3.22
2022-09-22T02:31:34.787Z,3.22
2022-09-22T02:34:06.518Z,6.50
2022-09-22T02:37:07.275Z,5.00
2022-09-22T02:43:01.462Z,3.78
2022-09-22T02:45:46.858Z,4.03
2022-09-22T02:48:22.341Z,4.55
2022-09-22T02:53:48.761Z,3.80
2022-09-22T02:56:15.738Z,3.13
2022-09-22T02:58:44.451Z,3.28
2022-09-22T03:01:20.616Z,3.03
2022-09-22T03:03:50.466Z,4.70
2022-09-22T03:06:20.179Z,5.20
2022-09-22T03:08:52.493Z,3.53
2022-09-22T03:11:19.160Z,6.35
2022-09-22T03:13:46.257Z,4.57
2022-09-22T03:16:12.945Z,3.67
2022-09-22T03:18:39.685Z,4.10
2022-09-22T03:21:12.301Z,5.50
2022-09-22T03:23:44.072Z,5.45
2022-09-22T03:26:10.658Z,6.35
2022-09-22T03:28:38.068Z,5.35
2022-09-22T03:31:04.941Z,2.55
2022-09-22T03:33:31.826Z,5.15
2022-09-22T03:35:58.707Z,3.35
2022-09-22T03:38:25.289Z,3.33
2022-09-22T03:40:54.371Z,4.78
2022-09-22T03:43:21.191Z,4.13
2022-09-22T03:45:47.860Z,5.72
2022-09-22T03:48:15.141Z,13.45
2022-09-22T03:53:37.779Z,6.25
2022-09-22T03:56:13.633Z,4.70
2022-09-22T03:58:47.566Z,4.65
2022-09-22T04:01:14.322Z,4.88
2022-09-22T04:03:45.884Z,6.53
2022-09-22T04:06:20.183Z,6.85
2022-09-22T04:08:49.336Z,6.35
2022-09-22T04:17:04.290Z,5.82
2022-09-22T04:19:35.443Z,5.13
2022-09-22T04:22:03.159Z,4.72
2022-09-22T04:24:30.190Z,4.47
2022-09-22T04:27:18.627Z,3.53
2022-09-22T04:29:43.800Z,7.57
2022-09-22T04:32:10.588Z,5.63
2022-09-22T04:34:39.414Z,6.13
2022-09-22T04:37:07.581Z,5.25
2022-09-22T04:39:36.900Z,4.40
2022-09-22T04:42:08.197Z,4.38
2022-09-22T04:44:35.589Z,6.03
2022-09-22T04:47:10.807Z,5.82
2022-09-22T04:49:38.610Z,9.70
2022-09-22T04:52:14.870Z,5.00
2022-09-22T04:54:44.856Z,7.45
2022-09-22T04:57:11.444Z,5.53
2022-09-22T04:59:38.106Z,5.43
2022-09-22T05:02:05.458Z,5.43
2022-09-22T05:04:32.855Z,6.65
2022-09-22T05:07:00.639Z,6.15
2022-09-22T05:09:27.597Z,7.90
2022-09-22T05:11:59.676Z,7.72
2022-09-22T05:14:31.040Z,8.05
2022-09-22T05:16:57.934Z,5.97
2022-09-22T05:19:26.609Z,6.97
2022-09-22T05:21:56.315Z,7.15
2022-09-22T05:24:25.821Z,5.28
2022-09-22T05:26:52.897Z,5.68
2022-09-22T05:29:23.542Z,4.55
2022-09-22T05:31:59.421Z,6.05
2022-09-22T05:34:26.552Z,6.25
2022-09-22T05:36:53.318Z,7.82
2022-09-22T05:39:21.092Z,8.77
2022-09-22T05:42:13.735Z,5.18
2022-09-22T05:44:42.999Z,6.82
2022-09-22T05:47:10.261Z,9.25
2022-09-22T05:49:37.943Z,6.70
2022-09-22T05:52:05.136Z,9.07
2022-09-22T05:54:31.769Z,7.50
2022-09-22T05:56:59.278Z,6.75
2022-09-22T05:59:30.086Z,10.50
2022-09-22T06:01:59.774Z,11.93
2022-09-22T06:04:27.118Z,11.35
2022-09-22T06:06:54.742Z,11.10
2022-09-22T06:09:25.783Z,9.55
2022-09-22T06:11:52.552Z,11.40
2022-09-22T06:17:15.972Z,8.75
2022-09-22T06:19:42.953Z,10.15
2022-09-22T06:22:10.948Z,10.63
2022-09-22T06:24:40.086Z,9.65
2022-09-22T06:27:06.837Z,11.68
2022-09-22T06:29:33.514Z,13.10
2022-09-22T06:32:01.292Z,8.35
2022-09-22T06:34:28.078Z,8.32
2022-09-22T06:36:55.792Z,12.02
2022-09-22T06:39:28.064Z,8.15
2022-09-22T06:53:59.949Z,12.50
2022-09-22T06:56:27.840Z,8.32
2022-09-22T06:59:11.801Z,7.00
2022-09-22T07:01:42.676Z,12.25
2022-09-22T07:04:11.874Z,10.05
2022-09-22T07:06:44.998Z,8.50
2022-09-22T07:09:12.525Z,8.25
2022-09-22T07:11:41.771Z,6.28
2022-09-22T07:14:11.997Z,12.23
2022-09-22T07:16:40.068Z,11.00
2022-09-22T07:19:09.806Z,8.90
2022-09-22T07:21:37.483Z,9.60
2022-09-22T07:24:17.779Z,6.88
2022-09-22T07:26:49.311Z,8.68
2022-09-22T07:29:17.015Z,5.63
2022-09-22T07:31:43.686Z,6.63
2022-09-22T07:34:13.815Z,5.95
2022-09-22T07:36:40.920Z,6.68
2022-09-22T07:39:10.170Z,6.47
2022-09-22T07:41:44.346Z,6.85
2022-09-22T07:44:33.313Z,6.35
2022-09-22T07:47:04.019Z,8.50
2022-09-22T07:49:34.568Z,10.40
2022-09-22T07:52:02.051Z,5.03
2022-09-22T07:54:29.104Z,6.65
2022-09-22T07:57:21.263Z,4.38
2022-09-22T08:00:05.981Z,4.38
2022-09-22T08:02:40.915Z,5.35
2022-09-22T08:05:11.723Z,6.38
2022-09-22T08:07:39.341Z,6.68
2022-09-22T08:10:07.610Z,3.25
2022-09-22T08:12:35.372Z,5.03
2022-09-22T08:15:05.321Z,6.70
2022-09-22T08:17:39.498Z,4.95
2022-09-22T08:20:12.812Z,3.70
2022-09-22T08:22:40.911Z,3.25
2022-09-22T08:25:33.641Z,4.40
2022-09-22T08:28:02.407Z,4.47
2022-09-22T08:30:29.059Z,3.35
2022-09-22T08:32:55.723Z,3.05
2022-09-22T08:35:24.512Z,10.05
2022-09-22T08:37:51.405Z,6.65
2022-09-22T08:40:22.891Z,6.15
2022-09-22T08:42:53.665Z,6.00
2022-09-22T08:48:39.663Z,4.38
2022-09-22T08:51:40.836Z,7.40
2022-09-22T08:54:13.331Z,3.05
2022-09-22T08:57:00.416Z,4.78
2022-09-22T08:59:42.028Z,6.13
2022-09-22T09:02:52.117Z,8.27
2022-09-22T09:05:59.687Z,7.53
2022-09-22T09:09:05.390Z,2.80
2022-09-22T09:11:59.638Z,5.45
2022-09-22T09:14:45.978Z,2.90
2022-09-22T09:17:35.175Z,6.88
2022-09-22T09:20:31.464Z,10.15
2022-09-22T09:22:59.955Z,13.85
2022-09-22T09:25:40.797Z,5.28
2022-09-22T09:28:28.125Z,9.43
2022-09-22T09:31:08.117Z,5.22
2022-09-22T09:33:47.867Z,2.63
2022-09-22T09:36:22.084Z,3.88
2022-09-22T09:38:58.059Z,2.72
2022-09-22T09:41:32.171Z,5.43
2022-09-22T09:44:07.175Z,5.05
2022-09-22T09:46:58.067Z,2.70
2022-09-22T09:49:30.584Z,2.20
2022-09-22T09:54:27.215Z,3.50
2022-09-22T09:57:15.083Z,4.68
2022-09-22T10:00:06.752Z,2.40
2022-09-22T10:02:51.674Z,2.80
2022-09-22T10:05:18.314Z,1.27
2022-09-22T10:07:57.426Z,1.88
2022-09-22T10:10:36.511Z,3.35
2022-09-22T10:13:03.603Z,3.38
2022-09-22T10:15:36.171Z,4.70
2022-09-22T10:18:29.716Z,5.15
2022-09-22T10:21:15.396Z,2.15
2022-09-22T10:23:46.193Z,4.07
2022-09-22T10:26:16.162Z,2.78
2022-09-22T10:29:18.569Z,4.55
2022-09-22T10:32:14.162Z,3.40
2022-09-22T10:37:24.036Z,4.05
2022-09-22T10:42:34.538Z,2.42
2022-09-22T10:45:12.873Z,4.80
2022-09-22T10:47:57.316Z,4.85
2022-09-22T10:50:40.556Z,8.00
2022-09-22T10:53:34.742Z,3.70
2022-09-22T10:56:39.208Z,4.30
2022-09-22T10:59:11.911Z,4.80
2022-09-22T11:01:58.433Z,3.95
2022-09-22T11:04:46.563Z,3.83
2022-09-22T11:07:59.094Z,2.20
2022-09-22T11:10:47.467Z,3.63
2022-09-22T11:13:24.048Z,3.10
2022-09-22T11:16:34.171Z,3.85
2022-09-22T11:19:07.022Z,3.67
2022-09-22T11:21:48.823Z,1.42
2022-09-22T11:24:38.537Z,2.65
2022-09-22T11:27:18.219Z,2.92
2022-09-22T11:29:56.727Z,3.17
2022-09-22T11:32:41.992Z,1.40
2022-09-22T11:35:42.900Z,2.83
2022-09-22T11:38:35.425Z,3.13
2022-09-22T11:41:18.288Z,5.20
2022-09-22T11:44:17.279Z,4.45
2022-09-22T11:47:21.074Z,2.90
2022-09-22T11:50:26.753Z,3.58
2022-09-22T11:53:20.289Z,4.72
2022-09-22T11:55:58.950Z,12.38
2022-09-22T11:58:33.514Z,6.82
2022-09-22T12:03:53.833Z,2.22
2022-09-22T12:06:26.307Z,2.95
2022-09-22T12:09:03.317Z,2.42
2022-09-22T12:11:40.251Z,2.00
2022-09-22T12:14:12.746Z,1.60
2022-09-22T12:16:55.049Z,3.20
2022-09-22T12:19:50.350Z,2.33
2022-09-22T12:22:39.959Z,3.70
2022-09-22T12:25:45.145Z,6.75
2022-09-22T12:28:25.012Z,1.00
2022-09-22T12:31:04.467Z,3.75
2022-09-22T12:33:39.313Z,1.20
2022-09-22T12:36:08.290Z,4.40
2022-09-22T12:38:38.199Z,4.38
2022-09-22T12:41:05.659Z,1.90
2022-09-22T12:43:34.280Z,1.60
2022-09-22T12:46:11.498Z,2.25
2022-09-22T12:48:43.788Z,1.63
2022-09-22T12:53:48.896Z,5.45
2022-09-22T12:56:46.243Z,3.70
2022-09-22T12:59:35.037Z,3.38
2022-09-22T13:02:11.309Z,2.20
2022-09-22T13:07:44.433Z,1.20
2022-09-22T13:10:24.040Z,2.92
2022-09-22T13:13:05.952Z,3.05
2022-09-22T13:15:53.818Z,2.75
2022-09-22T13:18:42.841Z,2.35
2022-09-22T13:21:12.486Z,5.43
2022-09-22T13:24:17.719Z,7.38
2022-09-22T13:27:01.629Z,2.33
2022-09-22T13:29:28.363Z,2.10
2022-09-22T13:31:56.334Z,3.42
2022-09-22T13:34:34.788Z,2.80
2022-09-22T13:37:10.806Z,9.45
2022-09-22T13:39:52.813Z,9.13
2022-09-22T13:42:30.527Z,8.95
2022-09-22T13:45:05.770Z,2.83
2022-09-22T13:47:34.313Z,2.13
2022-09-22T13:50:04.884Z,2.83
2022-09-22T13:52:38.672Z,11.13
2022-09-22T13:55:36.497Z,1.08
2022-09-22T13:58:13.486Z,1.83
2022-09-22T14:01:12.603Z,5.00
2022-09-22T14:03:40.417Z,2.67
2022-09-22T14:06:16.807Z,1.75
2022-09-22T14:08:45.584Z,1.70
2022-09-22T14:11:21.692Z,2.28
2022-09-22T14:13:57.251Z,0.70
2022-09-22T14:16:41.553Z,5.68
2022-09-22T14:19:19.362Z,2.22
2022-09-22T14:21:56.308Z,4.53
2022-09-22T14:24:24.064Z,2.53
2022-09-22T14:27:03.078Z,3.42
2022-09-22T14:29:32.362Z,1.98
2022-09-22T14:32:15.846Z,2.75
2022-09-22T14:34:48.715Z,4.47
2022-09-22T14:37:30.934Z,3.13
2022-09-22T14:40:04.140Z,1.55
2022-09-22T14:42:33.013Z,5.93
2022-09-22T14:45:23.774Z,1.95
2022-09-22T14:48:17.764Z,4.07
2022-09-22T14:51:12.565Z,1.92
2022-09-22T14:53:47.822Z,1.73
2022-09-22T14:56:16.283Z,4.10
2022-09-22T14:58:50.129Z,4.63
2022-09-22T15:01:49.013Z,1.23
2022-09-22T15:04:28.009Z,2.25
2022-09-22T15:06:59.264Z,3.10
2022-09-22T15:09:31.373Z,6.32
2022-09-22T15:12:01.198Z,5.20
2022-09-22T15:14:46.461Z,10.52
2022-09-22T15:17:55.907Z,3.25
2022-09-22T15:20:44.217Z,1.95
2022-09-22T15:23:38.772Z,2.78
2022-09-22T15:26:07.802Z,1.00
2022-09-22T15:28:39.684Z,2.97
2022-09-22T15:31:06.711Z,2.03
2022-09-22T15:33:41.808Z,2.50
2022-09-22T15:36:17.665Z,1.58
2022-09-22T15:38:49.626Z,4.03
2022-09-22T15:41:16.525Z,6.78
2022-09-22T15:43:50.719Z,2.08
2022-09-22T15:46:39.302Z,3.78
2022-09-22T15:49:23.800Z,2.88
2022-09-22T15:51:58.710Z,4.22
2022-09-22T15:54:28.656Z,2.28
2022-09-22T15:56:56.269Z,3.42
2022-09-22T15:59:34.047Z,4.15
2022-09-22T16:02:14.502Z,1.88
2022-09-22T16:04:48.566Z,9.88
2022-09-22T16:07:19.693Z,3.95
2022-09-22T16:09:50.370Z,1.90
2022-09-22T16:12:23.522Z,1.35
2022-09-22T16:14:53.446Z,4.82
2022-09-22T16:17:23.367Z,5.82
2022-09-22T16:19:50.090Z,2.85
2022-09-22T16:22:16.853Z,5.78
2022-09-22T16:24:46.152Z,2.03
2022-09-22T16:27:12.836Z,4.75
2022-09-22T16:29:44.321Z,6.28
2022-09-22T16:35:08.601Z,4.05
2022-09-22T16:37:35.257Z,3.67
2022-09-22T16:40:06.064Z,3.75
2022-09-22T16:42:39.080Z,3.15
2022-09-22T16:45:07.838Z,1.92
2022-09-22T16:47:34.872Z,2.58
2022-09-22T16:50:09.465Z,1.35
2022-09-22T16:52:36.718Z,2.55
2022-09-22T16:55:06.840Z,3.70
2022-09-22T16:57:35.903Z,11.15
2022-09-22T17:00:03.875Z,9.18
2022-09-22T17:03:00.470Z,13.15
2022-09-22T17:05:27.290Z,11.10
2022-09-22T17:08:04.610Z,7.05
2022-09-22T17:10:34.821Z,7.38
2022-09-22T17:13:04.956Z,6.75
2022-09-22T17:15:36.289Z,9.50
2022-09-22T17:18:06.790Z,7.05
2022-09-22T17:20:38.963Z,14.23
2022-09-22T17:23:09.893Z,13.75
2022-09-22T17:25:37.432Z,8.38
2022-09-22T17:28:04.596Z,6.57
2022-09-22T17:30:31.663Z,3.10
2022-09-22T17:33:05.889Z,15.48
2022-09-22T17:35:36.944Z,13.32
2022-09-22T17:38:56.420Z,11.13
2022-09-22T17:41:30.675Z,12.40
2022-09-22T17:44:02.459Z,7.05
2022-09-22T17:46:34.066Z,8.98
2022-09-22T17:49:21.633Z,7.05
2022-09-22T17:52:08.212Z,6.53
2022-09-22T17:55:01.857Z,4.75
2022-09-22T17:57:31.766Z,5.97
2022-09-22T18:00:01.423Z,7.13
2022-09-22T18:02:38.370Z,3.10
2022-09-22T18:05:17.070Z,2.13
2022-09-22T18:07:53.854Z,4.80
2022-09-22T18:10:20.623Z,3.08
2022-09-22T18:12:47.266Z,4.78
2022-09-22T18:15:17.075Z,3.88
2022-09-22T18:17:43.795Z,3.25
2022-09-22T18:20:13.065Z,5.45
2022-09-22T18:22:40.930Z,1.90
2022-09-22T18:25:09.892Z,1.90
2022-09-22T18:27:37.419Z,2.78
2022-09-22T18:30:15.899Z,3.30
2022-09-22T18:32:42.834Z,7.53
2022-09-22T18:35:12.052Z,6.10
2022-09-22T18:37:39.238Z,5.93
2022-09-22T18:40:06.753Z,8.27
2022-09-22T18:42:38.966Z,5.95
2022-09-22T18:45:11.863Z,5.32
2022-09-22T18:47:42.822Z,3.53
2022-09-22T18:50:11.594Z,3.10
2022-09-22T18:52:42.296Z,8.77
2022-09-22T19:05:00.091Z,8.50
2022-09-22T19:07:42.481Z,5.65
2022-09-22T19:10:12.971Z,9.52
2022-09-22T19:13:05.362Z,19.88
2022-09-22T19:15:35.870Z,9.13
2022-09-22T19:18:03.823Z,18.90
2022-09-22T19:20:30.633Z,12.07
2022-09-22T19:23:07.073Z,22.38
2022-09-22T19:25:38.081Z,33.80
2022-09-22T19:28:05.908Z,31.95
2022-09-22T19:30:35.006Z,26.92
2022-09-22T19:33:10.036Z,27.17
2022-09-22T19:35:39.817Z,29.00
2022-09-22T19:38:06.483Z,12.55
2022-09-22T19:40:33.861Z,18.95
2022-09-22T19:43:03.568Z,16.98
2022-09-22T19:45:35.525Z,15.02
2022-09-22T19:48:05.728Z,8.70
2022-09-22T19:50:34.930Z,11.50
2022-09-22T19:53:04.695Z,11.35
2022-09-22T19:55:31.933Z,12.07
2022-09-22T19:57:58.576Z,17.00
2022-09-22T20:00:29.720Z,18.77
2022-09-22T20:02:57.565Z,15.68
2022-09-22T20:05:37.103Z,10.07
2022-09-22T20:08:21.962Z,5.35
2022-09-22T20:11:01.919Z,6.13
2022-09-22T20:13:56.445Z,3.42
2022-09-22T20:16:28.049Z,5.03
2022-09-22T20:18:54.966Z,4.45
2022-09-22T20:21:27.071Z,4.43
2022-09-22T20:23:56.832Z,2.30
2022-09-22T20:26:24.702Z,3.30
2022-09-22T20:28:57.083Z,5.20
2022-09-22T20:31:26.579Z,2.20
2022-09-22T20:33:57.042Z,4.72
2022-09-22T20:36:36.808Z,5.97
2022-09-22T20:39:04.995Z,5.30
2022-09-22T20:41:32.907Z,2.03
2022-09-22T20:44:01.198Z,3.15
2022-09-22T20:49:18.996Z,3.10
2022-09-22T20:51:48.670Z,3.08
2022-09-22T20:54:28.172Z,4.15
2022-09-22T20:57:06.473Z,3.80
2022-09-22T20:59:36.298Z,6.28
2022-09-22T21:02:03.025Z,3.13
2022-09-22T21:04:30.254Z,4.93
2022-09-22T21:06:57.530Z,4.70
2022-09-22T21:09:43.203Z,6.82
2022-09-22T21:12:12.897Z,3.45
2022-09-22T21:14:45.179Z,6.50
2022-09-22T21:17:13.991Z,2.00
2022-09-22T21:19:55.617Z,8.43
2022-09-22T21:22:22.692Z,6.15
2022-09-22T21:24:56.707Z,4.20
2022-09-22T21:27:43.503Z,7.57
2022-09-22T21:30:10.644Z,11.48
2022-09-22T21:32:40.229Z,22.00
2022-09-22T21:35:12.977Z,13.10
2022-09-22T21:37:43.879Z,12.25
2022-09-22T21:40:13.292Z,13.88
2022-09-22T21:42:40.078Z,6.82
2022-09-22T21:45:09.783Z,10.27
2022-09-22T21:47:36.673Z,6.75
2022-09-22T21:50:03.580Z,6.78
2022-09-22T21:52:30.531Z,6.32
2022-09-22T21:55:12.361Z,9.10
2022-09-22T21:57:41.792Z,4.85
2022-09-22T22:00:15.337Z,5.15
2022-09-22T22:03:02.917Z,8.93
2022-09-22T22:05:32.220Z,5.13
2022-09-22T22:07:59.140Z,8.05
2022-09-22T22:10:33.322Z,5.30
2022-09-22T22:12:59.976Z,9.98
2022-09-22T22:15:33.997Z,8.55
2022-09-22T22:18:04.134Z,9.32
2022-09-22T22:20:33.683Z,7.22
2022-09-22T22:23:00.225Z,8.55
2022-09-22T22:25:27.134Z,13.07
2022-09-22T22:28:18.455Z,10.63
2022-09-22T22:30:48.226Z,6.65
2022-09-22T22:33:19.815Z,6.55
2022-09-22T22:35:53.561Z,12.65
2022-09-22T22:38:24.769Z,6.28
2022-09-22T22:41:09.992Z,8.15
2022-09-22T22:43:44.457Z,7.28
2022-09-22T22:46:15.753Z,5.38
2022-09-22T23:01:09.270Z,4.10
2022-09-22T23:03:46.586Z,4.97
2022-09-22T23:06:15.431Z,4.85
2022-09-22T23:08:52.796Z,4.25
2022-09-22T23:11:28.408Z,5.10
2022-09-22T23:14:05.536Z,6.80
2022-09-22T23:16:35.344Z,7.95
2022-09-22T23:19:08.268Z,9.75
2022-09-22T23:21:36.008Z,9.00
2022-09-22T23:24:04.315Z,9.70
2022-09-22T23:26:31.261Z,11.07
2022-09-22T23:28:58.220Z,11.02
2022-09-22T23:31:25.025Z,10.60
2022-09-22T23:33:52.209Z,6.80
2022-09-22T23:36:23.438Z,10.55
2022-09-22T23:39:02.788Z,7.53
2022-09-22T23:41:34.042Z,6.45
2022-09-22T23:44:11.604Z,8.32
2022-09-22T23:46:38.627Z,9.10
2022-09-22T23:49:05.946Z,6.72
2022-09-22T23:51:37.369Z,6.07
2022-09-22T23:54:13.430Z,9.25
2022-09-22T23:56:41.225Z,6.68
2022-09-22T23:59:08.007Z,9.23
